Time;durP1;ratioP1;P1;durP2;ratioP2;P2;SDS_P1;SDS_P2;PMS_P1;PMS_P2;Temp;Humidity;BMP_temperature;BMP_pressure;BME280_temperature;BME280_humidity;BME280_pressure;Samples;Min_cycle;Max_cycle;Signal;HPM_P1;HPM_P2
2021/06/18 00:01:15;;;;;;;14.00;7.00;;;;;;;21.21;100.00;101167.47;4845822;29;20124;-76
2021/06/18 00:04:00;;;;;;;8.05;7.05;;;;;;;21.07;100.00;101169.16;4845655;29;20121;-76
2021/06/18 00:06:46;;;;;;;9.48;7.07;;;;;;;21.25;100.00;101162.81;4845933;29;20030;-76
2021/06/18 00:09:32;;;;;;;7.45;6.75;;;;;;;21.38;100.00;101159.41;4844661;29;20063;-75
2021/06/18 00:12:18;;;;;;;8.20;6.40;;;;;;;21.28;100.00;101154.66;4845413;29;20030;-76
2021/06/18 00:15:06;;;;;;;9.93;6.60;;;;;;;21.37;100.00;101163.03;4844470;29;20033;-75
2021/06/18 00:17:52;;;;;;;10.38;6.53;;;;;;;21.58;100.00;101164.50;4845712;29;20030;-75
2021/06/18 00:20:38;;;;;;;8.10;6.65;;;;;;;21.39;100.00;101154.94;4845326;29;20030;-75
2021/06/18 00:23:23;;;;;;;11.45;6.88;;;;;;;20.76;100.00;101150.34;4845817;29;20519;-75
2021/06/18 00:26:09;;;;;;;7.90;6.30;;;;;;;21.07;100.00;101150.50;4845868;29;20079;-76
2021/06/18 00:28:55;;;;;;;9.73;7.07;;;;;;;21.16;100.00;101148.22;4845511;29;20037;-76
2021/06/18 00:31:41;;;;;;;11.68;6.97;;;;;;;21.47;100.00;101145.59;4844737;29;20026;-76
2021/06/18 00:34:27;;;;;;;12.45;6.63;;;;;;;21.08;100.00;101144.22;4845904;29;20085;-76
2021/06/18 00:37:13;;;;;;;12.70;6.60;;;;;;;21.41;100.00;101145.03;4846056;29;20145;-76
2021/06/18 00:39:59;;;;;;;7.85;6.07;;;;;;;21.10;100.00;101143.19;4845080;29;20029;-76
2021/06/18 00:42:44;;;;;;;10.63;6.80;;;;;;;21.33;100.00;101142.81;4844984;29;20030;-75
2021/06/18 00:45:30;;;;;;;10.45;6.53;;;;;;;21.39;100.00;101141.63;4843701;29;20086;-76
2021/06/18 00:48:21;;;;;;;12.82;6.68;;;;;;;21.59;100.00;101136.03;4845637;29;20419;-75
2021/06/18 00:51:07;;;;;;;8.77;6.57;;;;;;;21.60;100.00;101130.63;4845106;29;20134;-74
2021/06/18 00:53:55;;;;;;;11.35;6.95;;;;;;;20.81;100.00;101138.53;4844704;29;20046;-75
2021/06/18 00:56:41;;;;;;;12.15;6.47;;;;;;;21.10;100.00;101137.03;4843955;29;20042;-75
2021/06/18 00:59:27;;;;;;;11.93;6.63;;;;;;;21.15;100.00;101151.81;4845095;29;20061;-75
2021/06/18 01:02:13;;;;;;;11.57;6.75;;;;;;;21.32;100.00;101157.09;4844295;29;20060;-75
2021/06/18 01:05:00;;;;;;;10.73;6.72;;;;;;;21.34;100.00;101162.34;4844568;29;20432;-75
2021/06/18 01:08:15;;;;;;;12.73;6.80;;;;;;;21.19;100.00;101148.03;4844827;29;20463;-75
2021/06/18 01:11:26;;;;;;;12.77;6.78;;;;;;;21.36;100.00;101158.66;4844460;29;20037;-75
2021/06/18 01:14:37;;;;;;;9.68;6.97;;;;;;;21.26;100.00;101145.91;4844222;29;20105;-75
2021/06/18 01:17:32;;;;;;;10.90;6.93;;;;;;;21.35;100.00;101142.72;4844250;29;20052;-76
2021/06/18 01:20:40;;;;;;;9.65;7.00;;;;;;;21.50;100.00;101133.91;4844252;29;20050;-76
2021/06/18 01:23:46;;;;;;;8.82;6.65;;;;;;;21.17;100.00;101135.72;4844602;29;20045;-76
2021/06/18 01:26:56;;;;;;;9.85;6.68;;;;;;;21.17;100.00;101133.06;4844018;29;20044;-75
2021/06/18 01:30:00;;;;;;;8.85;6.32;;;;;;;21.28;100.00;101136.88;4843841;29;20091;-74
2021/06/18 01:32:52;;;;;;;10.52;6.63;;;;;;;21.21;100.00;101139.94;4843948;29;20040;-76
2021/06/18 01:35:42;;;;;;;9.00;6.45;;;;;;;21.30;100.00;101139.47;4844222;29;20045;-76
2021/06/18 01:38:33;;;;;;;10.35;7.07;;;;;;;21.33;100.00;101140.16;4843763;29;20037;-75
2021/06/18 01:41:22;;;;;;;12.38;6.78;;;;;;;21.48;100.00;101144.63;4844120;29;20029;-75
2021/06/18 01:44:08;;;;;;;10.07;6.10;;;;;;;21.47;100.00;101137.59;4843727;29;20391;-75
2021/06/18 01:46:56;;;;;;;9.88;6.35;;;;;;;21.40;100.00;101140.66;4844786;29;20345;-76
2021/06/18 01:49:43;;;;;;;11.43;6.07;;;;;;;21.02;100.00;101134.75;4844260;29;20041;-75
2021/06/18 01:52:30;;;;;;;12.38;6.43;;;;;;;20.55;100.00;101138.16;4843776;29;20077;-76
2021/06/18 01:55:21;;;;;;;8.23;6.20;;;;;;;20.82;100.00;101136.72;4844122;29;20068;-75
2021/06/18 01:58:10;;;;;;;10.52;6.30;;;;;;;21.18;100.00;101146.31;4844445;29;20045;-75
2021/06/18 02:00:56;;;;;;;10.07;7.15;;;;;;;21.16;100.00;101150.00;4843611;29;20124;-75
2021/06/18 02:03:44;;;;;;;13.27;6.00;;;;;;;20.76;100.00;101150.34;4843526;29;20094;-75
2021/06/18 02:06:31;;;;;;;12.38;6.45;;;;;;;20.82;100.00;101161.56;4843587;29;20109;-76
2021/06/18 02:09:20;;;;;;;15.43;8.95;;;;;;;20.97;100.00;101138.63;4843435;29;20072;-75
2021/06/18 02:12:07;;;;;;;12.23;6.68;;;;;;;21.01;100.00;101124.19;4843070;29;20058;-76
2021/06/18 02:14:55;;;;;;;10.65;6.57;;;;;;;21.21;100.00;101122.16;4843504;29;20030;-75
2021/06/18 02:17:42;;;;;;;11.68;7.40;;;;;;;20.92;100.00;101114.88;4844046;29;20431;-75
2021/06/18 02:20:29;;;;;;;10.00;6.95;;;;;;;20.79;100.00;101119.13;4843712;29;20478;-76
2021/06/18 02:23:16;;;;;;;12.95;6.00;;;;;;;20.92;100.00;101128.22;4843233;29;20025;-75
2021/06/18 02:26:04;;;;;;;8.88;6.50;;;;;;;20.95;100.00;101117.41;4843381;29;20030;-75
2021/06/18 02:28:51;;;;;;;10.07;7.20;;;;;;;21.04;100.00;101113.34;4843599;29;20061;-75
2021/06/18 02:31:38;;;;;;;10.73;7.15;;;;;;;20.26;100.00;101112.19;4844194;29;20109;-75
2021/06/18 02:34:24;;;;;;;9.68;7.05;;;;;;;20.49;100.00;101103.88;4843521;29;20042;-75
2021/06/18 02:37:11;;;;;;;11.98;7.28;;;;;;;20.48;100.00;101096.81;4843664;29;20345;-76
2021/06/18 02:39:57;;;;;;;12.10;6.60;;;;;;;20.10;100.00;101090.81;4843369;29;20118;-75
2021/06/18 02:42:43;;;;;;;12.80;6.60;;;;;;;20.21;100.00;101100.94;4843423;29;20030;-75
2021/06/18 02:45:29;;;;;;;12.23;6.68;;;;;;;20.33;100.00;101106.47;4843040;29;20058;-76
2021/06/18 02:48:24;;;;;;;12.07;7.38;;;;;;;20.33;100.00;101111.78;4844211;29;20412;-75
2021/06/18 02:51:19;;;;;;;12.02;7.55;;;;;;;20.45;100.00;101105.84;4843163;29;20071;-76
2021/06/18 02:54:11;;;;;;;11.95;6.45;;;;;;;20.68;100.00;101113.50;4843905;29;20034;-76
2021/06/18 02:57:01;;;;;;;12.23;7.25;;;;;;;20.79;100.00;101110.25;4846559;29;20048;-76
2021/06/18 02:59:57;;;;;;;19.30;7.32;;;;;;;19.98;100.00;101102.06;4847020;29;20049;-76
2021/06/18 03:02:55;;;;;;;10.90;7.13;;;;;;;19.69;100.00;101107.06;4846936;29;20121;-76
2021/06/18 03:05:42;;;;;;;13.73;7.13;;;;;;;20.40;100.00;101113.19;4847423;29;20036;-76
2021/06/18 03:08:39;;;;;;;10.02;7.03;;;;;;;20.52;100.00;101109.91;4846509;29;20120;-76
2021/06/18 03:11:30;;;;;;;14.00;7.28;;;;;;;20.33;100.00;101117.09;4846770;29;20053;-76
2021/06/18 03:14:18;;;;;;;9.70;7.22;;;;;;;20.67;100.00;101113.56;4846171;29;20030;-76
2021/06/18 03:17:09;;;;;;;12.18;7.15;;;;;;;20.67;100.00;101116.22;4846469;29;20124;-76
2021/06/18 03:20:00;;;;;;;13.95;7.50;;;;;;;20.45;100.00;101127.13;4846822;29;20034;-76
2021/06/18 03:22:49;;;;;;;12.73;7.70;;;;;;;20.68;100.00;101140.13;4846323;29;20478;-76
2021/06/18 03:25:37;;;;;;;12.55;7.63;;;;;;;20.63;100.00;101133.31;4846077;29;20348;-76
2021/06/18 03:28:25;;;;;;;13.25;7.30;;;;;;;20.33;100.00;101180.97;4845670;29;20368;-75
2021/06/18 03:31:11;;;;;;;13.65;7.07;;;;;;;20.50;100.00;101189.00;4846160;29;20034;-76
2021/06/18 03:33:58;;;;;;;9.30;7.05;;;;;;;20.30;100.00;101193.59;4845915;29;20437;-75
2021/06/18 03:36:45;;;;;;;13.05;7.30;;;;;;;20.42;100.00;101192.97;4846503;29;20038;-76
2021/06/18 03:39:32;;;;;;;12.43;7.63;;;;;;;20.42;100.00;101203.63;4846389;29;20515;-76
2021/06/18 03:42:18;;;;;;;12.68;7.53;;;;;;;20.69;100.00;101199.56;4845330;29;20030;-76
2021/06/18 03:45:06;;;;;;;10.68;8.38;;;;;;;20.66;100.00;101208.56;4845547;29;20054;-76
2021/06/18 03:47:52;;;;;;;12.80;8.23;;;;;;;20.83;100.00;101197.91;4846549;29;20041;-75
2021/06/18 03:50:38;;;;;;;15.63;7.78;;;;;;;20.87;100.00;101195.94;4845534;29;20030;-75
2021/06/18 03:53:24;;;;;;;12.18;8.02;;;;;;;20.72;100.00;101196.72;4846131;29;20026;-75
2021/06/18 03:56:11;;;;;;;19.38;9.70;;;;;;;20.78;100.00;101178.63;4845640;29;20105;-75
2021/06/18 03:58:58;;;;;;;14.43;8.82;;;;;;;20.68;100.00;101182.72;4845307;29;20033;-76
2021/06/18 04:01:48;;;;;;;17.98;9.38;;;;;;;20.47;100.00;101173.19;4845389;29;20034;-77
2021/06/18 04:04:36;;;;;;;17.70;8.73;;;;;;;20.02;100.00;101190.53;4845989;29;20074;-75
2021/06/18 04:07:22;;;;;;;17.98;11.10;;;;;;;20.16;100.00;101188.94;4845493;29;20026;-76
2021/06/18 04:10:09;;;;;;;15.52;9.80;;;;;;;20.12;100.00;101199.81;4844387;29;20547;-75
2021/06/18 04:12:55;;;;;;;13.95;10.50;;;;;;;19.99;100.00;101194.19;4845577;29;20113;-75
2021/06/18 04:15:41;;;;;;;20.98;10.13;;;;;;;20.09;100.00;101198.16;4845141;29;20397;-76
2021/06/18 04:18:32;;;;;;;15.60;11.65;;;;;;;20.26;100.00;101181.38;4845956;29;20130;-76
2021/06/18 04:21:21;;;;;;;17.35;10.70;;;;;;;20.05;100.00;101172.59;4844893;29;20026;-76
2021/06/18 04:24:09;;;;;;;25.95;12.10;;;;;;;19.84;100.00;101173.66;4845450;29;20042;-75
2021/06/18 04:26:55;;;;;;;17.92;13.00;;;;;;;19.85;100.00;101177.19;4843548;29;20040;-75
2021/06/18 04:29:41;;;;;;;17.48;11.60;;;;;;;19.86;100.00;101181.56;4845199;29;20034;-75
2021/06/18 04:32:26;;;;;;;17.27;12.07;;;;;;;19.85;100.00;101183.34;4844754;29;20093;-75
2021/06/18 04:35:12;;;;;;;19.15;12.70;;;;;;;19.72;100.00;101176.91;4844875;29;20462;-75
2021/06/18 04:37:59;;;;;;;19.67;13.35;;;;;;;19.82;100.00;101177.34;4844830;29;20065;-75
2021/06/18 04:40:45;;;;;;;18.90;13.07;;;;;;;20.00;100.00;101189.72;4845222;29;20456;-75
2021/06/18 04:43:31;;;;;;;15.48;11.88;;;;;;;20.41;100.00;101178.78;4844735;29;20041;-74
2021/06/18 04:46:17;;;;;;;15.07;11.95;;;;;;;20.32;100.00;101167.75;4845048;29;20129;-75
2021/06/18 04:49:03;;;;;;;16.17;11.43;;;;;;;20.40;100.00;101174.41;4844932;29;20077;-75
2021/06/18 04:51:49;;;;;;;17.33;11.98;;;;;;;20.58;100.00;101170.81;4843084;29;20030;-75
2021/06/18 04:54:35;;;;;;;16.60;12.60;;;;;;;20.29;100.00;101176.75;4843804;29;20042;-76
2021/06/18 04:57:22;;;;;;;18.77;11.40;;;;;;;20.32;100.00;101176.59;4844318;29;20181;-74
2021/06/18 05:00:08;;;;;;;15.25;11.20;;;;;;;20.23;100.00;101198.34;4844498;29;20166;-76
2021/06/18 05:02:54;;;;;;;15.38;12.20;;;;;;;20.15;100.00;101197.88;4843155;29;20092;-76
2021/06/18 05:05:40;;;;;;;14.48;10.88;;;;;;;20.32;100.00;101205.00;4843833;29;20415;-76
2021/06/18 05:08:26;;;;;;;14.23;11.40;;;;;;;20.53;100.00;101198.63;4844191;29;20474;-76
2021/06/18 05:11:12;;;;;;;14.82;11.77;;;;;;;20.47;100.00;101186.50;4844414;29;20096;-75
2021/06/18 05:13:57;;;;;;;14.60;11.95;;;;;;;20.41;100.00;101208.06;4842640;29;20030;-74
2021/06/18 05:16:43;;;;;;;18.27;12.57;;;;;;;20.51;100.00;101209.34;4844240;29;20045;-76
2021/06/18 05:19:29;;;;;;;20.45;12.40;;;;;;;20.18;100.00;101205.72;4844025;29;20379;-75
2021/06/18 05:22:15;;;;;;;14.55;11.98;;;;;;;20.52;100.00;101202.22;4844116;29;20383;-75
2021/06/18 05:25:01;;;;;;;16.95;12.05;;;;;;;20.80;100.00;101208.72;4844465;29;20049;-74
2021/06/18 05:27:47;;;;;;;14.38;12.00;;;;;;;21.09;100.00;101205.44;4842497;29;20037;-75
2021/06/18 05:30:32;;;;;;;11.52;10.43;;;;;;;21.27;100.00;101209.81;4844390;29;20030;-75
2021/06/18 05:33:18;;;;;;;15.80;11.23;;;;;;;20.40;100.00;101205.50;4844101;29;20064;-75
2021/06/18 05:36:04;;;;;;;17.67;11.00;;;;;;;21.10;100.00;101214.28;4843364;29;20025;-74
2021/06/18 05:38:50;;;;;;;15.30;10.73;;;;;;;21.45;100.00;101208.78;4843767;29;20116;-75
2021/06/18 05:41:36;;;;;;;17.13;11.35;;;;;;;21.23;100.00;101204.69;4844038;29;20037;-75
2021/06/18 05:44:22;;;;;;;20.55;10.82;;;;;;;21.47;100.00;101209.59;4843300;29;20057;-75
2021/06/18 05:47:07;;;;;;;12.02;9.93;;;;;;;21.79;100.00;101205.16;4845520;29;20460;-75
2021/06/18 05:49:53;;;;;;;15.30;10.20;;;;;;;21.78;100.00;101214.13;4845253;29;20104;-76
2021/06/18 05:52:39;;;;;;;15.60;10.85;;;;;;;21.90;100.00;101202.78;4845199;29;20117;-76
2021/06/18 05:55:25;;;;;;;15.02;10.80;;;;;;;21.99;100.00;101196.91;4844717;29;20042;-76
2021/06/18 05:58:11;;;;;;;15.85;10.00;;;;;;;21.88;100.00;101201.97;4843936;29;20030;-75
2021/06/18 06:00:57;;;;;;;13.27;9.45;;;;;;;21.79;100.00;101199.84;4844217;29;20040;-75
2021/06/18 06:03:42;;;;;;;12.48;9.38;;;;;;;21.94;100.00;101193.66;4843508;29;20487;-76
2021/06/18 06:06:28;;;;;;;15.35;9.93;;;;;;;22.08;100.00;101177.69;4842996;29;20030;-76
2021/06/18 06:09:14;;;;;;;13.82;9.25;;;;;;;22.59;100.00;101178.19;4842990;29;20034;-76
2021/06/18 06:12:00;;;;;;;15.15;9.80;;;;;;;22.40;100.00;101166.88;4843891;29;20038;-76
2021/06/18 06:14:46;;;;;;;10.32;8.57;;;;;;;22.32;100.00;101181.63;4843292;29;20109;-76
2021/06/18 06:17:31;;;;;;;13.55;8.93;;;;;;;22.07;100.00;101176.81;4843945;29;20030;-74
2021/06/18 06:20:17;;;;;;;12.57;10.00;;;;;;;22.16;100.00;101180.78;4843317;29;20033;-76
2021/06/18 06:23:03;;;;;;;14.25;9.73;;;;;;;22.18;100.00;101193.09;4843431;29;20486;-75
2021/06/18 06:25:49;;;;;;;13.13;9.48;;;;;;;21.87;100.00;101182.44;4830003;29;20033;-74
2021/06/18 06:28:36;;;;;;;16.73;10.40;;;;;;;21.58;100.00;101195.66;4833826;29;20893;-74
2021/06/18 06:31:21;;;;;;;16.17;10.63;;;;;;;21.18;100.00;101196.94;4835419;29;20432;-74
2021/06/18 06:34:07;;;;;;;16.20;11.48;;;;;;;21.66;100.00;101196.09;4834878;29;20069;-76
2021/06/18 06:36:53;;;;;;;14.73;10.60;;;;;;;21.86;100.00;101193.22;4835969;29;20544;-74
2021/06/18 06:39:39;;;;;;;17.25;12.50;;;;;;;21.74;100.00;101191.25;4835908;29;20040;-74
2021/06/18 06:42:25;;;;;;;16.77;11.60;;;;;;;21.50;100.00;101189.88;4833470;29;20071;-74
2021/06/18 06:45:11;;;;;;;13.20;11.60;;;;;;;22.02;100.00;101189.56;4833686;29;20133;-74
2021/06/18 06:47:56;;;;;;;14.48;11.07;;;;;;;22.03;100.00;101182.44;4835770;29;20110;-74
2021/06/18 06:50:43;;;;;;;21.00;14.82;;;;;;;21.58;100.00;101177.84;4836508;29;20137;-75
2021/06/18 06:53:28;;;;;;;18.58;12.95;;;;;;;21.91;100.00;101178.63;4834015;29;20045;-74
2021/06/18 06:56:15;;;;;;;21.55;13.95;;;;;;;21.57;100.00;101176.13;4835164;29;20045;-73
2021/06/18 06:59:01;;;;;;;18.38;13.23;;;;;;;21.48;100.00;101176.63;4835916;29;20058;-74
2021/06/18 07:01:46;;;;;;;21.25;12.95;;;;;;;21.74;100.00;101173.41;4834192;29;20049;-74
2021/06/18 07:04:32;;;;;;;18.65;12.15;;;;;;;22.02;100.00;101168.22;4833812;29;20034;-74
2021/06/18 07:07:18;;;;;;;18.60;11.82;;;;;;;21.90;100.00;101174.25;4834968;29;20391;-74
2021/06/18 07:10:07;;;;;;;16.90;12.20;;;;;;;21.84;100.00;101163.94;4836951;29;20119;-76
2021/06/18 07:12:53;;;;;;;23.65;16.80;;;;;;;21.72;100.00;101169.09;4835193;29;20034;-76
2021/06/18 07:15:39;;;;;;;16.83;13.30;;;;;;;21.41;100.00;101158.38;4835292;29;20389;-77
2021/06/18 07:18:25;;;;;;;20.85;12.60;;;;;;;21.92;100.00;101169.72;4835494;29;20406;-79
2021/06/18 07:21:11;;;;;;;21.25;13.40;;;;;;;21.90;100.00;101163.59;4833290;29;20038;-75
2021/06/18 07:23:56;;;;;;;14.73;12.73;;;;;;;22.02;100.00;101167.38;4833219;29;20483;-76
2021/06/18 07:26:42;;;;;;;19.83;16.50;;;;;;;21.99;100.00;101175.56;4833805;29;20050;-76
2021/06/18 07:29:28;;;;;;;17.20;14.82;;;;;;;22.08;100.00;101162.56;4836491;29;20050;-75
2021/06/18 07:32:18;;;;;;;14.98;12.38;;;;;;;22.01;100.00;101160.31;4833948;29;20036;-76
2021/06/18 07:35:05;;;;;;;19.67;14.70;;;;;;;21.84;100.00;101173.75;4834149;29;20038;-74
2021/06/18 07:37:51;;;;;;;19.17;14.07;;;;;;;21.60;100.00;101177.75;4834304;29;20042;-74
2021/06/18 07:40:43;;;;;;;20.85;14.73;;;;;;;21.56;100.00;101186.88;4834498;29;20038;-74
2021/06/18 07:43:29;;;;;;;21.08;14.55;;;;;;;21.83;100.00;101172.03;4833738;29;20045;-74
2021/06/18 07:46:14;;;;;;;22.90;14.70;;;;;;;21.98;100.00;101156.00;4833361;29;20054;-73
2021/06/18 07:49:00;;;;;;;18.92;15.65;;;;;;;21.58;100.00;101172.50;4835364;29;20536;-75
2021/06/18 07:51:46;;;;;;;20.25;13.85;;;;;;;21.81;100.00;101169.44;4834110;29;20036;-74
2021/06/18 07:54:32;;;;;;;22.67;16.38;;;;;;;21.75;100.00;101167.16;4832876;29;20049;-74
2021/06/18 07:57:17;;;;;;;21.25;15.18;;;;;;;21.77;100.00;101164.38;4832818;29;20044;-73
2021/06/18 08:00:08;;;;;;;22.85;14.63;;;;;;;21.24;100.00;101166.44;4834812;29;20041;-74
2021/06/18 08:02:54;;;;;;;21.83;16.20;;;;;;;21.47;100.00;101171.38;4832347;29;20510;-74
2021/06/18 08:05:39;;;;;;;18.38;14.90;;;;;;;21.48;100.00;101165.97;4834860;29;20103;-74
2021/06/18 08:08:25;;;;;;;23.98;18.77;;;;;;;21.66;100.00;101170.28;4835662;29;20102;-74
2021/06/18 08:11:11;;;;;;;26.08;18.38;;;;;;;21.87;100.00;101161.09;4836220;29;20034;-74
2021/06/18 08:13:57;;;;;;;21.38;17.45;;;;;;;21.96;100.00;101151.72;4831097;29;20101;-74
2021/06/18 08:16:43;;;;;;;24.35;18.67;;;;;;;22.02;100.00;101154.03;4833540;29;20367;-73
2021/06/18 08:19:29;;;;;;;24.40;18.05;;;;;;;22.00;100.00;101146.13;4838077;29;20106;-74
2021/06/18 08:22:14;;;;;;;26.63;18.63;;;;;;;21.79;100.00;101127.81;4831974;29;20030;-75
2021/06/18 08:25:02;;;;;;;26.50;16.42;;;;;;;21.11;100.00;101126.28;4835579;29;20057;-75
2021/06/18 08:27:48;;;;;;;23.27;16.95;;;;;;;21.51;100.00;101133.81;4833591;29;20030;-74
2021/06/18 08:30:44;;;;;;;20.17;15.35;;;;;;;21.51;100.00;101122.28;4834839;29;20098;-75
2021/06/18 08:33:33;;;;;;;18.83;15.90;;;;;;;21.62;100.00;101115.38;4831815;29;20160;-75
2021/06/18 08:36:19;;;;;;;18.42;15.60;;;;;;;21.64;100.00;101110.84;4833499;29;20054;-75
2021/06/18 08:39:06;;;;;;;20.45;16.27;;;;;;;21.59;100.00;101104.91;4834796;29;20052;-76
2021/06/18 08:41:52;;;;;;;18.73;14.27;;;;;;;21.34;100.00;101106.38;4835896;29;20034;-74
2021/06/18 08:44:38;;;;;;;18.50;14.23;;;;;;;21.79;100.00;101098.47;4833459;29;20078;-74
2021/06/18 08:47:24;;;;;;;15.85;13.50;;;;;;;21.48;100.00;101101.97;4834379;29;20057;-75
2021/06/18 08:50:10;;;;;;;15.73;13.68;;;;;;;21.43;100.00;101104.06;4833825;29;20026;-73
2021/06/18 08:52:58;;;;;;;16.02;14.23;;;;;;;21.97;100.00;101108.06;4830582;29;20471;-74
2021/06/18 08:55:44;;;;;;;17.60;15.73;;;;;;;21.78;100.00;101113.59;4834200;29;20168;-74
2021/06/18 08:58:30;;;;;;;17.92;13.65;;;;;;;21.70;100.00;101121.19;4833057;29;20084;-74
2021/06/18 09:01:16;;;;;;;17.58;15.73;;;;;;;21.86;100.00;101115.84;4832578;29;20030;-75
2021/06/18 09:04:07;;;;;;;20.05;16.10;;;;;;;21.56;100.00;101110.41;4831736;29;20041;-75
2021/06/18 09:06:58;;;;;;;21.05;16.17;;;;;;;21.84;100.00;101096.38;4833338;29;20084;-73
2021/06/18 09:09:44;;;;;;;19.75;16.42;;;;;;;21.55;100.00;101092.69;4832555;29;20037;-72
2021/06/18 09:12:30;;;;;;;23.40;18.48;;;;;;;21.36;100.00;101091.13;4831577;29;21248;-73
2021/06/18 09:15:28;;;;;;;23.13;18.27;;;;;;;21.48;100.00;101096.66;4831915;29;20098;-74
2021/06/18 09:18:38;;;;;;;23.60;20.50;;;;;;;21.63;100.00;101095.78;4831525;29;20534;-75
2021/06/18 09:21:24;;;;;;;25.73;21.13;;;;;;;21.49;100.00;101093.03;4833339;29;20180;-74
2021/06/18 09:24:10;;;;;;;26.70;19.90;;;;;;;21.41;100.00;101089.06;4832447;29;20317;-76
2021/06/18 09:26:57;;;;;;;22.27;17.55;;;;;;;21.39;100.00;101097.16;4833317;29;20052;-76
2021/06/18 09:29:43;;;;;;;21.38;18.40;;;;;;;21.67;100.00;101073.34;4833465;29;20141;-76
2021/06/18 09:32:29;;;;;;;22.02;18.35;;;;;;;21.64;100.00;101065.50;4832565;29;20038;-75
2021/06/18 09:35:14;;;;;;;23.63;19.35;;;;;;;21.71;100.00;101058.03;4832524;29;20048;-76
2021/06/18 09:38:05;;;;;;;25.05;21.38;;;;;;;21.73;100.00;101059.66;4833172;29;20042;-75
2021/06/18 09:40:51;;;;;;;22.33;19.42;;;;;;;21.44;100.00;101056.91;4832981;29;20420;-78
2021/06/18 09:43:44;;;;;;;24.95;21.00;;;;;;;22.01;100.00;101051.75;4832004;29;20038;-77
2021/06/18 09:46:43;;;;;;;23.95;20.00;;;;;;;21.72;100.00;101041.06;4833235;29;20049;-74
2021/06/18 09:49:29;;;;;;;23.42;19.75;;;;;;;21.56;100.00;101037.53;4832384;29;20050;-74
2021/06/18 09:52:17;;;;;;;25.98;22.98;;;;;;;21.72;100.00;101046.41;4831196;29;20028;-76
2021/06/18 09:55:03;;;;;;;27.52;21.88;;;;;;;21.71;100.00;101048.22;4833618;29;20042;-74
2021/06/18 09:57:55;;;;;;;23.70;21.20;;;;;;;21.46;100.00;101055.03;4830494;29;20524;-73
2021/06/18 10:00:41;;;;;;;28.40;24.13;;;;;;;21.55;100.00;101050.03;4832306;29;20037;-73
2021/06/18 10:03:27;;;;;;;28.90;25.80;;;;;;;21.40;100.00;101045.56;4832204;29;20573;-73
2021/06/18 10:06:12;;;;;;;29.67;24.65;;;;;;;21.45;100.00;101042.63;4839233;29;20076;-75
2021/06/18 10:09:00;;;;;;;31.27;24.98;;;;;;;21.51;100.00;101039.63;4838170;29;20044;-76
2021/06/18 10:11:46;;;;;;;27.23;23.90;;;;;;;21.41;100.00;101039.28;4840626;29;20030;-76
2021/06/18 10:14:33;;;;;;;28.90;25.73;;;;;;;21.61;100.00;101035.47;4836842;29;20033;-75
2021/06/18 10:17:18;;;;;;;28.13;25.10;;;;;;;21.39;100.00;101043.84;4838188;29;20038;-75
2021/06/18 10:20:19;;;;;;;27.75;24.83;;;;;;;21.26;100.00;101040.13;4839384;29;20539;-76
2021/06/18 10:23:12;;;;;;;32.10;26.58;;;;;;;21.34;100.00;101045.06;4837556;29;20109;-75
2021/06/18 10:26:00;;;;;;;30.58;25.08;;;;;;;21.69;100.00;101044.75;4838583;29;20056;-75
2021/06/18 10:28:54;;;;;;;31.35;27.05;;;;;;;21.57;100.00;101041.91;4838626;29;20143;-75
2021/06/18 10:31:40;;;;;;;31.98;28.48;;;;;;;21.21;100.00;101044.00;4839857;29;20033;-76
2021/06/18 10:34:40;;;;;;;32.22;28.70;;;;;;;21.15;100.00;101052.34;4835443;29;20046;-74
2021/06/18 10:37:28;;;;;;;35.30;28.23;;;;;;;21.28;100.00;101064.91;4837596;29;20124;-75
2021/06/18 10:40:14;;;;;;;33.15;28.48;;;;;;;21.08;100.00;101065.16;4837711;29;20025;-76
2021/06/18 10:43:09;;;;;;;32.00;28.02;;;;;;;20.91;100.00;101069.66;4837019;29;20040;-75
2021/06/18 10:46:28;;;;;;;39.75;30.52;;;;;;;20.90;100.00;101068.78;4839664;29;20065;-72
2021/06/18 10:49:15;;;;;;;33.85;27.92;;;;;;;21.13;100.00;101068.41;4815956;29;20057;-76
2021/06/18 10:52:14;;;;;;;35.45;29.25;;;;;;;21.28;100.00;101056.03;4837700;29;20038;-76
2021/06/18 10:55:01;;;;;;;39.40;31.52;;;;;;;21.41;100.00;101046.41;4839902;29;20140;-75
2021/06/18 10:57:58;;;;;;;36.80;29.92;;;;;;;21.69;100.00;101042.06;4837600;29;20034;-73
2021/06/18 11:00:44;;;;;;;34.50;28.90;;;;;;;21.15;100.00;101061.22;4836798;29;20060;-75
2021/06/18 11:03:55;;;;;;;32.97;28.77;;;;;;;21.16;100.00;101064.72;4835947;29;20053;-73
2021/06/18 11:06:51;;;;;;;35.38;30.00;;;;;;;21.56;100.00;101057.06;4837654;29;20030;-73
2021/06/18 11:09:40;;;;;;;36.72;31.70;;;;;;;21.57;100.00;101047.25;4838033;29;20042;-73
2021/06/18 11:12:26;;;;;;;40.97;33.25;;;;;;;21.59;100.00;101045.38;4834896;29;20033;-74
2021/06/18 11:15:21;;;;;;;39.10;34.90;;;;;;;21.75;100.00;101035.56;4835486;29;20053;-73
2021/06/18 11:18:27;;;;;;;39.38;33.33;;;;;;;21.39;100.00;101019.84;4835810;29;20041;-74
2021/06/18 11:21:23;;;;;;;38.80;32.58;;;;;;;21.36;100.00;101037.81;4834024;29;20377;-74
2021/06/18 11:24:36;;;;;;;37.97;33.75;;;;;;;21.59;100.00;101024.03;4834915;29;20112;-76
2021/06/18 11:27:25;;;;;;;38.80;33.85;;;;;;;21.79;100.00;101016.59;4834980;29;20076;-76
2021/06/18 11:31:02;;;;;;;44.97;35.63;;;;;;;22.06;100.00;101000.78;4836878;29;20041;-77
2021/06/18 11:33:56;;;;;;;39.83;33.22;;;;;;;22.21;100.00;100987.38;4837264;29;20041;-75
2021/06/18 11:36:43;;;;;;;35.10;31.38;;;;;;;22.44;100.00;100978.81;4839278;29;20038;-74
2021/06/18 11:39:29;;;;;;;33.15;29.63;;;;;;;22.59;100.00;100961.84;4838970;29;20071;-75
2021/06/18 11:42:15;;;;;;;33.25;29.60;;;;;;;22.78;100.00;100973.09;4834009;29;20046;-75
2021/06/18 11:45:01;;;;;;;32.65;28.50;;;;;;;23.05;100.00;100959.78;4834938;29;20058;-75
2021/06/18 11:47:47;;;;;;;34.33;28.75;;;;;;;22.97;100.00;100954.94;4834227;29;20040;-76
2021/06/18 11:50:37;;;;;;;32.17;28.40;;;;;;;23.06;100.00;100945.44;4834481;29;20058;-76
2021/06/18 11:53:23;;;;;;;29.65;26.42;;;;;;;22.56;100.00;100935.34;4832615;29;20026;-73
2021/06/18 11:56:10;;;;;;;32.72;29.48;;;;;;;22.85;100.00;100937.00;4834028;29;20034;-74
2021/06/18 11:58:56;;;;;;;36.95;31.83;;;;;;;22.42;100.00;100931.81;4833873;29;20117;-74
2021/06/18 12:01:42;;;;;;;35.92;32.08;;;;;;;22.02;100.00;100938.72;4832914;29;20037;-72
2021/06/18 12:04:27;;;;;;;39.10;33.08;;;;;;;22.00;100.00;100931.75;4831937;29;20045;-74
2021/06/18 12:07:28;;;;;;;39.47;32.22;;;;;;;21.64;100.00;100942.81;4833379;29;20045;-72
2021/06/18 12:10:40;;;;;;;42.17;33.47;;;;;;;21.96;100.00;100948.91;4833592;29;20029;-74
2021/06/18 12:13:26;;;;;;;42.50;33.88;;;;;;;22.22;100.00;100929.50;4833387;29;20034;-75
2021/06/18 12:16:12;;;;;;;43.80;35.10;;;;;;;22.17;100.00;100920.91;4834349;29;20088;-74
2021/06/18 12:19:24;;;;;;;41.50;36.08;;;;;;;22.02;100.00;100921.88;4834814;29;20026;-73
2021/06/18 12:22:15;;;;;;;36.92;32.35;;;;;;;21.81;100.00;100950.69;4836303;29;20106;-74
2021/06/18 12:25:01;;;;;;;32.15;28.75;;;;;;;22.11;100.00;100930.16;4836259;29;20075;-73
2021/06/18 12:27:47;;;;;;;32.53;28.98;;;;;;;21.66;100.00;100921.41;4832277;29;20094;-74
2021/06/18 12:30:36;;;;;;;32.28;27.92;;;;;;;21.63;100.00;100902.91;4835539;29;20468;-74
2021/06/18 12:33:22;;;;;;;47.45;31.50;;;;;;;21.61;100.00;100913.66;4830663;29;20026;-74
2021/06/18 12:36:16;;;;;;;65.72;41.00;;;;;;;21.57;100.00;100904.13;4835413;29;20113;-75
2021/06/18 12:39:10;;;;;;;44.28;29.48;;;;;;;21.00;100.00;100930.63;4832603;29;20037;-71
2021/06/18 12:41:56;;;;;;;14.77;13.25;;;;;;;21.11;100.00;100963.72;4833214;29;20113;-72